West Baden Springs, IN (47469)

11:24 AM EDT on April 19, 2015 (GMT -0400)
Rusk Indiana | | Change Station
CLOSE
Current Station
Personal Weather Station
Location: Shoals, IN
Elevation: 669 ft
Nearby Weather Stations

Elev 669 ft 38.55 °N, 86.74 °W | Updated 8 seconds ago

Rain
Rain
60.2 °F
Feels Like 60.2 °F
N
0.0
Wind Variable Wind from West
Gusts 2.2 mph

Today
High -- | Low -- °F
--% Chance of Precip.
Yesterday
High -- | Low -- °F
Precip. -- in
7:05 AM 8:26 PM
New Moon, 1% visible
Pressure 29.65 in
Visibility 7.0 miles
Clouds Mostly Cloudy 500 ft
Overcast 1300 ft
Dew Point 60 °F
Humidity 99%
Rainfall 0.64 in
Snow Depth Not available.
UV 2 out of 12
Pollen 1.10 out of 12
Air Quality Not available.
Flu Activity Local Activity
METAR KHNB 191515Z AUTO 12007KT 7SM BKN005 OVC013 17/14 A2965 RMK AO1 P0003

More Conditions Fewer Conditions

Pressure 29.65 in
Visibility 7.0 miles
Clouds Mostly Cloudy 500 ft
Overcast 1300 ft
Dew Point 60 °F
Humidity 99%
Rainfall 0.64 in
Snow Depth Not available.
UV 2 out of 12
Pollen 1.10 out of 12
Air Quality Not available.
Flu Activity Local Activity
METAR KHNB 191515Z AUTO 12007KT 7SM BKN005 OVC013 17/14 A2965 RMK AO1 P0003

More Conditions Fewer Conditions

10-Day Weather Forecast

Almanac

Astronomy

Apr. 19, 2015 Rise Set
Actual Time
Civil Twilight
Nautical Twilight
Astronomical Twilight
Moon
Length of Visible Light
Length of Day
Tomorrow will be .
, % of the Moon is Illuminated

Today's Extremes

State Highs State Lows

Community

WunderPhotos

Upload Photos

1,814,834 photos uploaded!

WunderBlogs® & News

Nearby

Air Quality

  Air Quality AQ Index Pollutant
Not available.

Snow Depth

Station Depth Elevation

Earthquake Activity

City Distance Mag. Time & Date
Minimum magnitude displayed is 2.5.

Coastal Water Temperatures

Place Temperature

Stations

Nearby Weather Stations

Station Location Temp. Windchill Dew Point Humidity Wind Precip. Elev Updated Type